sensor_id;sensor_type;location;lat;lon;timestamp;pressure;altitude;pressure_sealevel;temperature;humidity
45275;BME280;31019;43.780;25.948;2022-11-11T01:01:39;102208.28;;;3.53;100.00
45275;BME280;31019;43.780;25.948;2022-11-11T01:04:07;102212.13;;;3.49;100.00
45275;BME280;31019;43.780;25.948;2022-11-11T01:06:35;102207.72;;;3.38;100.00
45275;BME280;31019;43.780;25.948;2022-11-11T01:09:04;102202.78;;;3.56;100.00
45275;BME280;31019;43.780;25.948;2022-11-11T01:11:33;102207.06;;;3.57;100.00
45275;BME280;31019;43.780;25.948;2022-11-11T01:14:01;102216.47;;;3.82;100.00
45275;BME280;31019;43.780;25.948;2022-11-11T01:16:29;102215.81;;;3.89;100.00
45275;BME280;31019;43.780;25.948;2022-11-11T01:19:12;102202.81;;;3.88;100.00
45275;BME280;31019;43.780;25.948;2022-11-11T01:21:40;102214.28;;;4.08;100.00
45275;BME280;31019;43.780;25.948;2022-11-11T01:24:12;102210.25;;;3.72;100.00
45275;BME280;31019;43.780;25.948;2022-11-11T01:26:41;102202.59;;;3.80;100.00
45275;BME280;31019;43.780;25.948;2022-11-11T01:29:12;102213.25;;;3.78;100.00
45275;BME280;31019;43.780;25.948;2022-11-11T01:31:48;102207.53;;;3.62;100.00
45275;BME280;31019;43.780;25.948;2022-11-11T01:34:35;102198.50;;;3.55;100.00
45275;BME280;31019;43.780;25.948;2022-11-11T01:37:12;102200.13;;;3.67;100.00
45275;BME280;31019;43.780;25.948;2022-11-11T01:39:41;102206.06;;;3.69;100.00
45275;BME280;31019;43.780;25.948;2022-11-11T01:42:15;102202.63;;;4.01;100.00
45275;BME280;31019;43.780;25.948;2022-11-11T01:44:46;102207.50;;;4.05;100.00
45275;BME280;31019;43.780;25.948;2022-11-11T01:47:17;102207.44;;;4.38;100.00
45275;BME280;31019;43.780;25.948;2022-11-11T01:49:51;102197.09;;;4.67;100.00
45275;BME280;31019;43.780;25.948;2022-11-11T01:52:20;102201.88;;;4.52;100.00
45275;BME280;31019;43.780;25.948;2022-11-11T01:54:52;102194.84;;;4.62;100.00
45275;BME280;31019;43.780;25.948;2022-11-11T01:57:23;102207.97;;;4.52;100.00
45275;BME280;31019;43.780;25.948;2022-11-11T01:59:57;102205.56;;;4.70;100.00
45275;BME280;31019;43.780;25.948;2022-11-11T02:02:42;102211.38;;;4.43;100.00
45275;BME280;31019;43.780;25.948;2022-11-11T02:05:28;102212.13;;;4.55;100.00
45275;BME280;31019;43.780;25.948;2022-11-11T02:08:14;102201.56;;;4.45;100.00
45275;BME280;31019;43.780;25.948;2022-11-11T02:11:11;102204.34;;;4.53;100.00
45275;BME280;31019;43.780;25.948;2022-11-11T02:13:51;102211.56;;;4.51;100.00
45275;BME280;31019;43.780;25.948;2022-11-11T02:16:37;102216.88;;;4.61;100.00
45275;BME280;31019;43.780;25.948;2022-11-11T02:19:07;102210.31;;;4.55;100.00
45275;BME280;31019;43.780;25.948;2022-11-11T02:21:44;102220.75;;;4.57;100.00
45275;BME280;31019;43.780;25.948;2022-11-11T02:24:21;102215.66;;;4.44;100.00
45275;BME280;31019;43.780;25.948;2022-11-11T02:26:49;102202.13;;;4.28;100.00
45275;BME280;31019;43.780;25.948;2022-11-11T02:29:19;102217.84;;;4.39;100.00
45275;BME280;31019;43.780;25.948;2022-11-11T02:31:48;102226.84;;;4.36;100.00
45275;BME280;31019;43.780;25.948;2022-11-11T02:34:17;102217.97;;;4.58;100.00
45275;BME280;31019;43.780;25.948;2022-11-11T02:36:45;102223.38;;;4.15;100.00
45275;BME280;31019;43.780;25.948;2022-11-11T02:39:14;102221.38;;;4.28;100.00
45275;BME280;31019;43.780;25.948;2022-11-11T02:41:48;102226.81;;;4.16;100.00
45275;BME280;31019;43.780;25.948;2022-11-11T02:44:35;102232.88;;;4.27;100.00
45275;BME280;31019;43.780;25.948;2022-11-11T02:47:26;102234.84;;;4.35;100.00
45275;BME280;31019;43.780;25.948;2022-11-11T02:50:07;102240.50;;;4.30;100.00
45275;BME280;31019;43.780;25.948;2022-11-11T02:52:34;102227.03;;;4.24;100.00
45275;BME280;31019;43.780;25.948;2022-11-11T02:55:03;102235.28;;;4.19;100.00
45275;BME280;31019;43.780;25.948;2022-11-11T02:57:38;102232.72;;;4.29;100.00
45275;BME280;31019;43.780;25.948;2022-11-11T08:46:42;102543.69;;;7.53;100.00
45275;BME280;31019;43.780;25.948;2022-11-11T09:29:14;102561.63;;;9.35;100.00
45275;BME280;31019;43.780;25.948;2022-11-11T09:31:52;102572.88;;;9.55;100.00
45275;BME280;31019;43.780;25.948;2022-11-11T09:34:59;102566.66;;;9.64;100.00
45275;BME280;31019;43.780;25.948;2022-11-11T09:38:05;102560.97;;;9.59;100.00
45275;BME280;31019;43.780;25.948;2022-11-11T09:41:05;102567.03;;;9.69;100.00
45275;BME280;31019;43.780;25.948;2022-11-11T09:43:50;102565.41;;;9.76;100.00
45275;BME280;31019;43.780;25.948;2022-11-11T09:46:32;102562.53;;;9.70;100.00
45275;BME280;31019;43.780;25.948;2022-11-11T09:49:57;102563.06;;;9.73;100.00
45275;BME280;31019;43.780;25.948;2022-11-11T09:52:26;102565.25;;;9.78;100.00
45275;BME280;31019;43.780;25.948;2022-11-11T09:55:14;102572.31;;;9.95;100.00
45275;BME280;31019;43.780;25.948;2022-11-11T09:57:48;102563.25;;;9.80;100.00
45275;BME280;31019;43.780;25.948;2022-11-11T10:00:25;102564.66;;;9.92;100.00
45275;BME280;31019;43.780;25.948;2022-11-11T10:03:53;102564.66;;;9.92;100.00
45275;BME280;31019;43.780;25.948;2022-11-11T10:06:31;102565.16;;;9.88;100.00
45275;BME280;31019;43.780;25.948;2022-11-11T10:09:12;102563.38;;;9.96;100.00
45275;BME280;31019;43.780;25.948;2022-11-11T10:12:00;102566.56;;;10.00;100.00
45275;BME280;31019;43.780;25.948;2022-11-11T10:15:11;102561.38;;;9.98;100.00
45275;BME280;31019;43.780;25.948;2022-11-11T10:17:47;102555.94;;;10.00;100.00
45275;BME280;31019;43.780;25.948;2022-11-11T10:20:31;102567.19;;;10.20;100.00
45275;BME280;31019;43.780;25.948;2022-11-11T10:29:45;102569.16;;;10.18;100.00
